sensor_id;sensor_type;location;lat;lon;timestamp;P1;durP1;ratioP1;P2;durP2;ratioP2
72201;SDS011;60105;54.956;73.412;2022-09-20T00:01:30;22.35;;;6.75;;
72201;SDS011;60105;54.956;73.412;2022-09-20T00:04:00;18.42;;;6.22;;
72201;SDS011;60105;54.956;73.412;2022-09-20T00:06:30;18.88;;;6.90;;
72201;SDS011;60105;54.956;73.412;2022-09-20T00:08:57;16.30;;;7.53;;
72201;SDS011;60105;54.956;73.412;2022-09-20T00:11:30;11.65;;;5.97;;
72201;SDS011;60105;54.956;73.412;2022-09-20T00:14:04;20.92;;;7.97;;
72201;SDS011;60105;54.956;73.412;2022-09-20T00:16:34;16.42;;;7.50;;
72201;SDS011;60105;54.956;73.412;2022-09-20T00:19:03;18.00;;;8.05;;
72201;SDS011;60105;54.956;73.412;2022-09-20T00:21:41;23.37;;;7.93;;
72201;SDS011;60105;54.956;73.412;2022-09-20T00:24:08;21.00;;;8.27;;
72201;SDS011;60105;54.956;73.412;2022-09-20T00:26:35;16.33;;;8.63;;
72201;SDS011;60105;54.956;73.412;2022-09-20T00:29:04;20.35;;;8.82;;
72201;SDS011;60105;54.956;73.412;2022-09-20T00:31:35;23.10;;;8.88;;
72201;SDS011;60105;54.956;73.412;2022-09-20T00:34:09;28.40;;;9.00;;
72201;SDS011;60105;54.956;73.412;2022-09-20T00:36:54;20.10;;;8.73;;
72201;SDS011;60105;54.956;73.412;2022-09-20T00:39:24;28.27;;;9.57;;
72201;SDS011;60105;54.956;73.412;2022-09-20T00:41:51;25.15;;;8.20;;
72201;SDS011;60105;54.956;73.412;2022-09-20T00:47:28;26.30;;;9.20;;
72201;SDS011;60105;54.956;73.412;2022-09-20T00:50:07;17.95;;;8.73;;
72201;SDS011;60105;54.956;73.412;2022-09-20T00:52:38;23.60;;;9.20;;
72201;SDS011;60105;54.956;73.412;2022-09-20T00:55:08;21.27;;;8.20;;
72201;SDS011;60105;54.956;73.412;2022-09-20T00:57:36;22.55;;;8.50;;
72201;SDS011;60105;54.956;73.412;2022-09-20T01:00:04;24.30;;;8.70;;
72201;SDS011;60105;54.956;73.412;2022-09-20T01:02:51;24.45;;;8.88;;
72201;SDS011;60105;54.956;73.412;2022-09-20T01:05:21;23.70;;;7.80;;
72201;SDS011;60105;54.956;73.412;2022-09-20T01:07:48;20.90;;;8.45;;
72201;SDS011;60105;54.956;73.412;2022-09-20T01:10:16;15.57;;;7.28;;
72201;SDS011;60105;54.956;73.412;2022-09-20T01:12:53;22.47;;;7.40;;
72201;SDS011;60105;54.956;73.412;2022-09-20T01:15:19;24.08;;;6.88;;
72201;SDS011;60105;54.956;73.412;2022-09-20T01:17:49;24.73;;;7.13;;
72201;SDS011;60105;54.956;73.412;2022-09-20T01:20:20;21.98;;;7.50;;
72201;SDS011;60105;54.956;73.412;2022-09-20T01:28:47;19.83;;;7.22;;
72201;SDS011;60105;54.956;73.412;2022-09-20T01:31:27;17.02;;;7.00;;
72201;SDS011;60105;54.956;73.412;2022-09-20T01:34:10;18.55;;;6.80;;
72201;SDS011;60105;54.956;73.412;2022-09-20T01:39:35;24.13;;;6.37;;
72201;SDS011;60105;54.956;73.412;2022-09-20T01:42:30;22.45;;;6.97;;
72201;SDS011;60105;54.956;73.412;2022-09-20T01:50:52;21.73;;;7.78;;
72201;SDS011;60105;54.956;73.412;2022-09-20T02:16:11;32.22;;;7.57;;
72201;SDS011;60105;54.956;73.412;2022-09-20T02:33:17;36.30;;;9.90;;
72201;SDS011;60105;54.956;73.412;2022-09-20T02:36:14;31.30;;;10.47;;
72201;SDS011;60105;54.956;73.412;2022-09-20T02:42:16;31.83;;;14.63;;
72201;SDS011;60105;54.956;73.412;2022-09-20T02:44:57;39.97;;;11.57;;
72201;SDS011;60105;54.956;73.412;2022-09-20T02:47:41;29.15;;;10.10;;
72201;SDS011;60105;54.956;73.412;2022-09-20T02:53:35;33.75;;;10.20;;
72201;SDS011;60105;54.956;73.412;2022-09-20T02:59:24;29.60;;;10.02;;
72201;SDS011;60105;54.956;73.412;2022-09-20T03:24:31;31.42;;;9.90;;
72201;SDS011;60105;54.956;73.412;2022-09-20T03:27:22;36.92;;;10.25;;
72201;SDS011;60105;54.956;73.412;2022-09-20T03:30:03;35.85;;;9.65;;
72201;SDS011;60105;54.956;73.412;2022-09-20T03:35:28;36.20;;;10.82;;
72201;SDS011;60105;54.956;73.412;2022-09-20T03:49:59;33.17;;;9.80;;
72201;SDS011;60105;54.956;73.412;2022-09-20T03:53:00;33.60;;;10.50;;
72201;SDS011;60105;54.956;73.412;2022-09-20T03:55:48;30.85;;;11.43;;
72201;SDS011;60105;54.956;73.412;2022-09-20T04:03:55;40.30;;;13.02;;
72201;SDS011;60105;54.956;73.412;2022-09-20T04:06:43;44.42;;;12.57;;
72201;SDS011;60105;54.956;73.412;2022-09-20T04:22:38;48.47;;;12.50;;
72201;SDS011;60105;54.956;73.412;2022-09-20T04:25:14;49.03;;;12.35;;
72201;SDS011;60105;54.956;73.412;2022-09-20T04:27:46;46.07;;;12.37;;
72201;SDS011;60105;54.956;73.412;2022-09-20T04:30:24;61.85;;;25.17;;
72201;SDS011;60105;54.956;73.412;2022-09-20T04:33:17;49.08;;;19.08;;
72201;SDS011;60105;54.956;73.412;2022-09-20T04:38:45;49.55;;;13.50;;
72201;SDS011;60105;54.956;73.412;2022-09-20T04:53:02;43.03;;;12.80;;
72201;SDS011;60105;54.956;73.412;2022-09-20T04:55:50;42.83;;;13.67;;
72201;SDS011;60105;54.956;73.412;2022-09-20T04:58:29;38.33;;;13.63;;
72201;SDS011;60105;54.956;73.412;2022-09-20T05:17:37;36.60;;;14.32;;
72201;SDS011;60105;54.956;73.412;2022-09-20T05:23:11;30.07;;;12.13;;
72201;SDS011;60105;54.956;73.412;2022-09-20T05:29:23;49.55;;;13.13;;
72201;SDS011;60105;54.956;73.412;2022-09-20T05:35:23;41.70;;;14.68;;
72201;SDS011;60105;54.956;73.412;2022-09-20T05:43:34;51.95;;;19.50;;
72201;SDS011;60105;54.956;73.412;2022-09-20T06:05:02;49.23;;;15.27;;
72201;SDS011;60105;54.956;73.412;2022-09-20T06:23:43;39.17;;;13.98;;
72201;SDS011;60105;54.956;73.412;2022-09-20T06:26:22;50.25;;;12.93;;
72201;SDS011;60105;54.956;73.412;2022-09-20T06:28:53;47.33;;;14.27;;
72201;SDS011;60105;54.956;73.412;2022-09-20T06:31:25;41.10;;;13.20;;
72201;SDS011;60105;54.956;73.412;2022-09-20T06:33:56;42.25;;;13.40;;
72201;SDS011;60105;54.956;73.412;2022-09-20T06:36:35;46.47;;;13.57;;
72201;SDS011;60105;54.956;73.412;2022-09-20T06:42:44;38.85;;;12.38;;
72201;SDS011;60105;54.956;73.412;2022-09-20T06:45:11;38.87;;;12.77;;
72201;SDS011;60105;54.956;73.412;2022-09-20T06:47:37;43.90;;;13.32;;
72201;SDS011;60105;54.956;73.412;2022-09-20T06:50:04;48.03;;;12.75;;
72201;SDS011;60105;54.956;73.412;2022-09-20T06:52:41;43.30;;;12.48;;
72201;SDS011;60105;54.956;73.412;2022-09-20T06:55:12;33.67;;;11.63;;
72201;SDS011;60105;54.956;73.412;2022-09-20T06:57:53;29.00;;;11.87;;
72201;SDS011;60105;54.956;73.412;2022-09-20T07:00:20;38.03;;;11.25;;
72201;SDS011;60105;54.956;73.412;2022-09-20T07:02:51;24.27;;;8.98;;
72201;SDS011;60105;54.956;73.412;2022-09-20T07:05:28;30.00;;;10.20;;
72201;SDS011;60105;54.956;73.412;2022-09-20T07:07:58;33.72;;;9.25;;
72201;SDS011;60105;54.956;73.412;2022-09-20T07:10:26;30.83;;;8.33;;
72201;SDS011;60105;54.956;73.412;2022-09-20T07:12:56;28.85;;;9.15;;
72201;SDS011;60105;54.956;73.412;2022-09-20T07:15:24;25.48;;;8.60;;
72201;SDS011;60105;54.956;73.412;2022-09-20T07:17:51;25.10;;;6.95;;
72201;SDS011;60105;54.956;73.412;2022-09-20T07:20:17;23.67;;;7.55;;
72201;SDS011;60105;54.956;73.412;2022-09-20T07:22:45;22.77;;;7.37;;
72201;SDS011;60105;54.956;73.412;2022-09-20T07:25:12;22.25;;;7.20;;
72201;SDS011;60105;54.956;73.412;2022-09-20T07:27:48;24.83;;;7.13;;
72201;SDS011;60105;54.956;73.412;2022-09-20T07:30:16;22.98;;;7.32;;
72201;SDS011;60105;54.956;73.412;2022-09-20T07:32:44;25.08;;;7.82;;
72201;SDS011;60105;54.956;73.412;2022-09-20T07:35:10;28.43;;;7.30;;
72201;SDS011;60105;54.956;73.412;2022-09-20T07:37:37;20.23;;;7.07;;
72201;SDS011;60105;54.956;73.412;2022-09-20T07:40:07;22.98;;;7.90;;
72201;SDS011;60105;54.956;73.412;2022-09-20T07:42:45;30.60;;;7.55;;
72201;SDS011;60105;54.956;73.412;2022-09-20T07:45:11;21.30;;;7.57;;
72201;SDS011;60105;54.956;73.412;2022-09-20T07:47:37;22.90;;;7.60;;
72201;SDS011;60105;54.956;73.412;2022-09-20T07:50:06;13.73;;;7.13;;
72201;SDS011;60105;54.956;73.412;2022-09-20T07:52:46;27.65;;;6.95;;
72201;SDS011;60105;54.956;73.412;2022-09-20T07:55:17;20.52;;;7.13;;
72201;SDS011;60105;54.956;73.412;2022-09-20T07:57:48;27.45;;;7.93;;
72201;SDS011;60105;54.956;73.412;2022-09-20T08:00:16;20.23;;;7.50;;
72201;SDS011;60105;54.956;73.412;2022-09-20T08:02:42;26.40;;;7.80;;
72201;SDS011;60105;54.956;73.412;2022-09-20T08:05:10;20.83;;;6.88;;
72201;SDS011;60105;54.956;73.412;2022-09-20T08:07:36;22.75;;;6.93;;
72201;SDS011;60105;54.956;73.412;2022-09-20T08:10:04;27.50;;;6.93;;
72201;SDS011;60105;54.956;73.412;2022-09-20T08:12:31;23.53;;;6.60;;
72201;SDS011;60105;54.956;73.412;2022-09-20T08:14:57;15.73;;;5.93;;
72201;SDS011;60105;54.956;73.412;2022-09-20T08:17:24;13.90;;;5.65;;
72201;SDS011;60105;54.956;73.412;2022-09-20T08:19:50;16.10;;;4.85;;
72201;SDS011;60105;54.956;73.412;2022-09-20T08:22:18;11.63;;;5.40;;
72201;SDS011;60105;54.956;73.412;2022-09-20T08:24:44;15.27;;;4.30;;
72201;SDS011;60105;54.956;73.412;2022-09-20T08:27:11;15.07;;;5.20;;
72201;SDS011;60105;54.956;73.412;2022-09-20T08:29:38;9.77;;;3.63;;
72201;SDS011;60105;54.956;73.412;2022-09-20T08:32:05;17.65;;;4.70;;
72201;SDS011;60105;54.956;73.412;2022-09-20T08:34:31;12.52;;;4.43;;
72201;SDS011;60105;54.956;73.412;2022-09-20T08:36:57;11.73;;;4.37;;
72201;SDS011;60105;54.956;73.412;2022-09-20T08:39:24;12.13;;;4.32;;
72201;SDS011;60105;54.956;73.412;2022-09-20T08:44:51;10.52;;;3.53;;
72201;SDS011;60105;54.956;73.412;2022-09-20T08:47:23;11.77;;;3.80;;
72201;SDS011;60105;54.956;73.412;2022-09-20T08:49:58;11.23;;;4.40;;
72201;SDS011;60105;54.956;73.412;2022-09-20T08:52:30;11.57;;;4.18;;
72201;SDS011;60105;54.956;73.412;2022-09-20T08:55:24;11.50;;;3.78;;
72201;SDS011;60105;54.956;73.412;2022-09-20T08:57:56;7.80;;;3.80;;
72201;SDS011;60105;54.956;73.412;2022-09-20T09:00:24;5.78;;;3.30;;
72201;SDS011;60105;54.956;73.412;2022-09-20T09:03:06;10.73;;;3.57;;
72201;SDS011;60105;54.956;73.412;2022-09-20T09:05:37;9.77;;;4.28;;
72201;SDS011;60105;54.956;73.412;2022-09-20T09:08:14;13.25;;;4.10;;
72201;SDS011;60105;54.956;73.412;2022-09-20T09:10:48;9.40;;;3.85;;
72201;SDS011;60105;54.956;73.412;2022-09-20T09:13:20;19.45;;;3.60;;
72201;SDS011;60105;54.956;73.412;2022-09-20T09:16:12;6.70;;;3.33;;
72201;SDS011;60105;54.956;73.412;2022-09-20T09:18:42;7.65;;;2.78;;
72201;SDS011;60105;54.956;73.412;2022-09-20T09:21:20;8.52;;;3.00;;
72201;SDS011;60105;54.956;73.412;2022-09-20T09:24:11;13.88;;;3.88;;
72201;SDS011;60105;54.956;73.412;2022-09-20T09:26:41;9.95;;;3.25;;
72201;SDS011;60105;54.956;73.412;2022-09-20T09:29:20;16.90;;;3.97;;
72201;SDS011;60105;54.956;73.412;2022-09-20T09:31:48;10.18;;;3.53;;
72201;SDS011;60105;54.956;73.412;2022-09-20T09:34:24;14.40;;;3.50;;
72201;SDS011;60105;54.956;73.412;2022-09-20T09:36:57;9.80;;;3.20;;
72201;SDS011;60105;54.956;73.412;2022-09-20T09:39:28;7.82;;;3.25;;
72201;SDS011;60105;54.956;73.412;2022-09-20T09:45:11;10.30;;;3.25;;
72201;SDS011;60105;54.956;73.412;2022-09-20T09:47:38;6.90;;;3.85;;
72201;SDS011;60105;54.956;73.412;2022-09-20T09:50:19;9.15;;;3.60;;
72201;SDS011;60105;54.956;73.412;2022-09-20T09:53:01;8.05;;;3.10;;
72201;SDS011;60105;54.956;73.412;2022-09-20T10:01:12;11.13;;;3.25;;
72201;SDS011;60105;54.956;73.412;2022-09-20T10:06:49;10.27;;;3.10;;
72201;SDS011;60105;54.956;73.412;2022-09-20T10:21:00;11.75;;;3.22;;
72201;SDS011;60105;54.956;73.412;2022-09-20T10:24:06;14.40;;;4.20;;
72201;SDS011;60105;54.956;73.412;2022-09-20T10:27:11;9.77;;;3.80;;
72201;SDS011;60105;54.956;73.412;2022-09-20T10:38:13;13.27;;;3.73;;
72201;SDS011;60105;54.956;73.412;2022-09-20T10:48:52;12.98;;;4.03;;
72201;SDS011;60105;54.956;73.412;2022-09-20T10:56:43;14.05;;;3.95;;
72201;SDS011;60105;54.956;73.412;2022-09-20T11:10:12;10.90;;;3.60;;
72201;SDS011;60105;54.956;73.412;2022-09-20T11:12:57;10.38;;;3.78;;
72201;SDS011;60105;54.956;73.412;2022-09-20T11:15:47;11.18;;;3.78;;
72201;SDS011;60105;54.956;73.412;2022-09-20T11:18:38;11.30;;;3.50;;
72201;SDS011;60105;54.956;73.412;2022-09-20T11:21:20;15.60;;;3.72;;
72201;SDS011;60105;54.956;73.412;2022-09-20T11:23:55;15.25;;;3.45;;
72201;SDS011;60105;54.956;73.412;2022-09-20T11:26:49;10.32;;;3.55;;
72201;SDS011;60105;54.956;73.412;2022-09-20T11:32:28;15.03;;;3.93;;
72201;SDS011;60105;54.956;73.412;2022-09-20T11:35:13;11.88;;;3.90;;
72201;SDS011;60105;54.956;73.412;2022-09-20T11:43:41;15.75;;;3.63;;
72201;SDS011;60105;54.956;73.412;2022-09-20T11:46:10;10.63;;;4.37;;
72201;SDS011;60105;54.956;73.412;2022-09-20T11:48:49;17.63;;;4.28;;
72201;SDS011;60105;54.956;73.412;2022-09-20T11:56:36;11.68;;;4.18;;
72201;SDS011;60105;54.956;73.412;2022-09-20T11:59:06;12.70;;;4.30;;
72201;SDS011;60105;54.956;73.412;2022-09-20T12:01:53;8.65;;;3.80;;
72201;SDS011;60105;54.956;73.412;2022-09-20T12:04:31;10.60;;;4.07;;
72201;SDS011;60105;54.956;73.412;2022-09-20T12:07:03;13.57;;;4.50;;
72201;SDS011;60105;54.956;73.412;2022-09-20T12:09:45;16.50;;;4.32;;
72201;SDS011;60105;54.956;73.412;2022-09-20T12:14:59;13.25;;;4.28;;
72201;SDS011;60105;54.956;73.412;2022-09-20T12:26:06;11.00;;;4.40;;
72201;SDS011;60105;54.956;73.412;2022-09-20T12:28:36;15.98;;;4.93;;
72201;SDS011;60105;54.956;73.412;2022-09-20T12:36:38;14.73;;;4.68;;
72201;SDS011;60105;54.956;73.412;2022-09-20T12:44:33;25.83;;;6.22;;
72201;SDS011;60105;54.956;73.412;2022-09-20T12:47:01;14.30;;;4.80;;
72201;SDS011;60105;54.956;73.412;2022-09-20T12:58:47;18.90;;;5.40;;
72201;SDS011;60105;54.956;73.412;2022-09-20T13:03:44;18.70;;;5.15;;
72201;SDS011;60105;54.956;73.412;2022-09-20T13:11:39;15.63;;;5.50;;
72201;SDS011;60105;54.956;73.412;2022-09-20T13:16:55;22.35;;;6.72;;
72201;SDS011;60105;54.956;73.412;2022-09-20T13:19:41;19.47;;;5.90;;
72201;SDS011;60105;54.956;73.412;2022-09-20T13:22:12;24.75;;;6.85;;
72201;SDS011;60105;54.956;73.412;2022-09-20T13:24:48;23.13;;;6.53;;
72201;SDS011;60105;54.956;73.412;2022-09-20T13:27:20;22.70;;;7.40;;
72201;SDS011;60105;54.956;73.412;2022-09-20T13:29:52;22.40;;;7.85;;
72201;SDS011;60105;54.956;73.412;2022-09-20T13:35:04;25.42;;;7.50;;
72201;SDS011;60105;54.956;73.412;2022-09-20T13:37:51;28.15;;;9.05;;
72201;SDS011;60105;54.956;73.412;2022-09-20T13:40:35;25.67;;;10.43;;
72201;SDS011;60105;54.956;73.412;2022-09-20T13:45:57;26.13;;;10.50;;
72201;SDS011;60105;54.956;73.412;2022-09-20T13:48:25;34.65;;;11.35;;
72201;SDS011;60105;54.956;73.412;2022-09-20T13:50:55;35.33;;;11.48;;
72201;SDS011;60105;54.956;73.412;2022-09-20T13:53:31;35.20;;;11.68;;
72201;SDS011;60105;54.956;73.412;2022-09-20T13:55:58;50.53;;;13.57;;
72201;SDS011;60105;54.956;73.412;2022-09-20T13:58:25;50.00;;;11.23;;
72201;SDS011;60105;54.956;73.412;2022-09-20T14:00:55;36.72;;;10.85;;
72201;SDS011;60105;54.956;73.412;2022-09-20T14:03:24;36.85;;;12.05;;
72201;SDS011;60105;54.956;73.412;2022-09-20T14:05:52;28.80;;;12.02;;
72201;SDS011;60105;54.956;73.412;2022-09-20T14:08:32;35.70;;;13.07;;
72201;SDS011;60105;54.956;73.412;2022-09-20T14:11:11;37.87;;;13.97;;
72201;SDS011;60105;54.956;73.412;2022-09-20T14:13:59;43.08;;;13.35;;
72201;SDS011;60105;54.956;73.412;2022-09-20T14:16:37;41.78;;;14.75;;
72201;SDS011;60105;54.956;73.412;2022-09-20T14:19:05;42.05;;;14.10;;
72201;SDS011;60105;54.956;73.412;2022-09-20T14:21:33;38.03;;;14.00;;
72201;SDS011;60105;54.956;73.412;2022-09-20T14:24:12;39.50;;;13.80;;
72201;SDS011;60105;54.956;73.412;2022-09-20T14:29:48;37.67;;;15.50;;
72201;SDS011;60105;54.956;73.412;2022-09-20T14:34:43;37.90;;;16.45;;
72201;SDS011;60105;54.956;73.412;2022-09-20T14:37:13;33.90;;;14.73;;
72201;SDS011;60105;54.956;73.412;2022-09-20T14:39:48;42.28;;;16.23;;
72201;SDS011;60105;54.956;73.412;2022-09-20T14:42:19;34.85;;;14.90;;
72201;SDS011;60105;54.956;73.412;2022-09-20T14:44:54;36.00;;;16.67;;
72201;SDS011;60105;54.956;73.412;2022-09-20T14:47:24;46.03;;;15.95;;
72201;SDS011;60105;54.956;73.412;2022-09-20T14:50:01;59.87;;;17.13;;
72201;SDS011;60105;54.956;73.412;2022-09-20T14:52:35;44.72;;;16.73;;
72201;SDS011;60105;54.956;73.412;2022-09-20T14:55:15;44.38;;;16.63;;
72201;SDS011;60105;54.956;73.412;2022-09-20T14:57:44;52.47;;;18.52;;
72201;SDS011;60105;54.956;73.412;2022-09-20T15:00:15;52.60;;;17.10;;
72201;SDS011;60105;54.956;73.412;2022-09-20T15:02:44;42.53;;;15.33;;
72201;SDS011;60105;54.956;73.412;2022-09-20T15:05:23;54.65;;;17.20;;
72201;SDS011;60105;54.956;73.412;2022-09-20T15:07:57;61.72;;;17.77;;
72201;SDS011;60105;54.956;73.412;2022-09-20T15:10:24;51.97;;;18.98;;
72201;SDS011;60105;54.956;73.412;2022-09-20T15:12:50;45.25;;;18.73;;
72201;SDS011;60105;54.956;73.412;2022-09-20T15:15:16;50.40;;;18.83;;
72201;SDS011;60105;54.956;73.412;2022-09-20T15:17:43;52.40;;;18.33;;
72201;SDS011;60105;54.956;73.412;2022-09-20T15:20:20;58.47;;;18.45;;
72201;SDS011;60105;54.956;73.412;2022-09-20T15:22:47;44.33;;;16.98;;
72201;SDS011;60105;54.956;73.412;2022-09-20T15:25:18;55.47;;;18.65;;
72201;SDS011;60105;54.956;73.412;2022-09-20T15:27:46;45.03;;;18.37;;
72201;SDS011;60105;54.956;73.412;2022-09-20T15:30:14;50.28;;;18.33;;
72201;SDS011;60105;54.956;73.412;2022-09-20T15:32:54;43.60;;;18.35;;
72201;SDS011;60105;54.956;73.412;2022-09-20T15:35:21;42.40;;;17.95;;
72201;SDS011;60105;54.956;73.412;2022-09-20T15:37:47;44.15;;;17.38;;
72201;SDS011;60105;54.956;73.412;2022-09-20T15:40:13;48.57;;;18.80;;
72201;SDS011;60105;54.956;73.412;2022-09-20T15:42:40;39.72;;;18.15;;
72201;SDS011;60105;54.956;73.412;2022-09-20T15:45:07;48.67;;;17.55;;
72201;SDS011;60105;54.956;73.412;2022-09-20T15:47:35;45.78;;;17.08;;
72201;SDS011;60105;54.956;73.412;2022-09-20T15:50:05;37.20;;;17.17;;
72201;SDS011;60105;54.956;73.412;2022-09-20T15:52:33;37.37;;;17.87;;
72201;SDS011;60105;54.956;73.412;2022-09-20T15:55:01;33.55;;;16.75;;
72201;SDS011;60105;54.956;73.412;2022-09-20T15:57:29;33.28;;;18.17;;
72201;SDS011;60105;54.956;73.412;2022-09-20T15:59:56;45.08;;;18.23;;
72201;SDS011;60105;54.956;73.412;2022-09-20T16:02:29;41.05;;;19.33;;
72201;SDS011;60105;54.956;73.412;2022-09-20T16:04:55;37.77;;;18.23;;
72201;SDS011;60105;54.956;73.412;2022-09-20T16:07:23;44.60;;;17.83;;
72201;SDS011;60105;54.956;73.412;2022-09-20T16:09:53;31.75;;;16.05;;
72201;SDS011;60105;54.956;73.412;2022-09-20T16:12:21;32.45;;;17.17;;
72201;SDS011;60105;54.956;73.412;2022-09-20T16:14:49;39.67;;;17.63;;
72201;SDS011;60105;54.956;73.412;2022-09-20T16:17:15;40.07;;;18.93;;
72201;SDS011;60105;54.956;73.412;2022-09-20T16:19:42;41.30;;;17.67;;
72201;SDS011;60105;54.956;73.412;2022-09-20T16:22:13;37.65;;;16.65;;
72201;SDS011;60105;54.956;73.412;2022-09-20T16:24:40;35.75;;;16.00;;
72201;SDS011;60105;54.956;73.412;2022-09-20T16:27:06;25.48;;;14.77;;
72201;SDS011;60105;54.956;73.412;2022-09-20T16:29:34;33.73;;;15.30;;
72201;SDS011;60105;54.956;73.412;2022-09-20T16:32:08;27.67;;;13.13;;
72201;SDS011;60105;54.956;73.412;2022-09-20T16:34:34;28.73;;;14.48;;
72201;SDS011;60105;54.956;73.412;2022-09-20T16:39:41;26.90;;;14.23;;
72201;SDS011;60105;54.956;73.412;2022-09-20T16:42:09;24.47;;;13.63;;
72201;SDS011;60105;54.956;73.412;2022-09-20T16:44:40;32.20;;;14.30;;
72201;SDS011;60105;54.956;73.412;2022-09-20T16:47:11;29.67;;;13.80;;
72201;SDS011;60105;54.956;73.412;2022-09-20T16:49:43;26.98;;;14.10;;
72201;SDS011;60105;54.956;73.412;2022-09-20T16:52:10;25.10;;;14.88;;
72201;SDS011;60105;54.956;73.412;2022-09-20T16:54:47;30.67;;;16.03;;
72201;SDS011;60105;54.956;73.412;2022-09-20T16:57:13;34.75;;;17.95;;
72201;SDS011;60105;54.956;73.412;2022-09-20T16:59:50;34.45;;;17.05;;
72201;SDS011;60105;54.956;73.412;2022-09-20T17:02:26;42.00;;;18.80;;
72201;SDS011;60105;54.956;73.412;2022-09-20T17:04:52;37.00;;;18.90;;
72201;SDS011;60105;54.956;73.412;2022-09-20T17:07:18;44.03;;;20.37;;
72201;SDS011;60105;54.956;73.412;2022-09-20T17:09:48;39.72;;;20.60;;
72201;SDS011;60105;54.956;73.412;2022-09-20T17:12:15;49.30;;;22.20;;
72201;SDS011;60105;54.956;73.412;2022-09-20T17:14:46;33.50;;;20.38;;
72201;SDS011;60105;54.956;73.412;2022-09-20T17:17:12;40.35;;;20.52;;
72201;SDS011;60105;54.956;73.412;2022-09-20T17:19:38;47.77;;;20.70;;
72201;SDS011;60105;54.956;73.412;2022-09-20T17:22:05;41.45;;;21.63;;
72201;SDS011;60105;54.956;73.412;2022-09-20T17:24:32;39.28;;;19.25;;
72201;SDS011;60105;54.956;73.412;2022-09-20T17:26:58;44.75;;;20.15;;
72201;SDS011;60105;54.956;73.412;2022-09-20T17:29:25;41.75;;;20.73;;
72201;SDS011;60105;54.956;73.412;2022-09-20T17:32:02;38.33;;;20.33;;
72201;SDS011;60105;54.956;73.412;2022-09-20T17:34:28;32.63;;;18.08;;
72201;SDS011;60105;54.956;73.412;2022-09-20T17:36:56;37.20;;;18.75;;
72201;SDS011;60105;54.956;73.412;2022-09-20T17:39:27;36.00;;;19.48;;
72201;SDS011;60105;54.956;73.412;2022-09-20T17:42:03;35.65;;;19.83;;
72201;SDS011;60105;54.956;73.412;2022-09-20T17:44:30;39.37;;;20.37;;
72201;SDS011;60105;54.956;73.412;2022-09-20T17:47:01;36.30;;;18.75;;
72201;SDS011;60105;54.956;73.412;2022-09-20T17:49:32;35.70;;;18.60;;
72201;SDS011;60105;54.956;73.412;2022-09-20T17:52:09;37.50;;;18.63;;
72201;SDS011;60105;54.956;73.412;2022-09-20T17:54:40;35.28;;;18.58;;
72201;SDS011;60105;54.956;73.412;2022-09-20T17:57:06;37.03;;;17.63;;
72201;SDS011;60105;54.956;73.412;2022-09-20T17:59:32;40.85;;;17.70;;
72201;SDS011;60105;54.956;73.412;2022-09-20T18:02:01;30.58;;;17.42;;
72201;SDS011;60105;54.956;73.412;2022-09-20T18:04:27;34.22;;;17.23;;
72201;SDS011;60105;54.956;73.412;2022-09-20T18:06:53;34.22;;;17.92;;
72201;SDS011;60105;54.956;73.412;2022-09-20T18:09:28;39.90;;;17.00;;
72201;SDS011;60105;54.956;73.412;2022-09-20T18:11:58;35.00;;;17.70;;
72201;SDS011;60105;54.956;73.412;2022-09-20T18:14:35;41.72;;;18.67;;
72201;SDS011;60105;54.956;73.412;2022-09-20T18:17:01;36.95;;;18.77;;
72201;SDS011;60105;54.956;73.412;2022-09-20T18:19:30;44.38;;;19.25;;
72201;SDS011;60105;54.956;73.412;2022-09-20T18:21:58;49.77;;;19.30;;
72201;SDS011;60105;54.956;73.412;2022-09-20T18:24:25;53.75;;;21.75;;
72201;SDS011;60105;54.956;73.412;2022-09-20T18:26:51;48.35;;;20.45;;
72201;SDS011;60105;54.956;73.412;2022-09-20T18:29:18;63.40;;;26.25;;
72201;SDS011;60105;54.956;73.412;2022-09-20T18:31:48;81.03;;;27.38;;
72201;SDS011;60105;54.956;73.412;2022-09-20T18:34:26;75.47;;;27.30;;
72201;SDS011;60105;54.956;73.412;2022-09-20T18:36:59;67.95;;;24.92;;
72201;SDS011;60105;54.956;73.412;2022-09-20T18:39:26;68.65;;;26.92;;
72201;SDS011;60105;54.956;73.412;2022-09-20T18:41:59;69.45;;;27.17;;
72201;SDS011;60105;54.956;73.412;2022-09-20T18:44:27;64.10;;;26.13;;
72201;SDS011;60105;54.956;73.412;2022-09-20T18:46:58;64.87;;;27.07;;
72201;SDS011;60105;54.956;73.412;2022-09-20T18:49:32;72.70;;;25.45;;
72201;SDS011;60105;54.956;73.412;2022-09-20T18:51:59;64.28;;;26.45;;
72201;SDS011;60105;54.956;73.412;2022-09-20T18:54:25;63.03;;;25.38;;
72201;SDS011;60105;54.956;73.412;2022-09-20T18:57:05;63.90;;;24.52;;
72201;SDS011;60105;54.956;73.412;2022-09-20T18:59:34;58.23;;;26.90;;
72201;SDS011;60105;54.956;73.412;2022-09-20T19:02:20;65.75;;;25.70;;
72201;SDS011;60105;54.956;73.412;2022-09-20T19:07:45;66.97;;;25.65;;
72201;SDS011;60105;54.956;73.412;2022-09-20T19:26:52;59.83;;;27.83;;
72201;SDS011;60105;54.956;73.412;2022-09-20T19:29:24;67.97;;;28.13;;
72201;SDS011;60105;54.956;73.412;2022-09-20T19:31:53;69.10;;;27.42;;
72201;SDS011;60105;54.956;73.412;2022-09-20T19:34:25;71.38;;;26.33;;
72201;SDS011;60105;54.956;73.412;2022-09-20T19:39:51;68.37;;;26.83;;
72201;SDS011;60105;54.956;73.412;2022-09-20T19:50:50;60.33;;;25.05;;
72201;SDS011;60105;54.956;73.412;2022-09-20T19:53:18;65.50;;;26.00;;
72201;SDS011;60105;54.956;73.412;2022-09-20T19:56:04;60.05;;;25.98;;
72201;SDS011;60105;54.956;73.412;2022-09-20T19:58:52;56.88;;;24.50;;
72201;SDS011;60105;54.956;73.412;2022-09-20T20:01:30;56.50;;;24.65;;
72201;SDS011;60105;54.956;73.412;2022-09-20T20:04:03;56.38;;;25.05;;
72201;SDS011;60105;54.956;73.412;2022-09-20T20:18:16;62.35;;;25.20;;
72201;SDS011;60105;54.956;73.412;2022-09-20T20:20:47;54.53;;;24.67;;
72201;SDS011;60105;54.956;73.412;2022-09-20T20:28:44;43.53;;;22.05;;
72201;SDS011;60105;54.956;73.412;2022-09-20T20:31:10;39.55;;;21.15;;
72201;SDS011;60105;54.956;73.412;2022-09-20T20:33:37;46.03;;;20.43;;
72201;SDS011;60105;54.956;73.412;2022-09-20T20:36:04;47.20;;;21.45;;
72201;SDS011;60105;54.956;73.412;2022-09-20T20:38:34;52.28;;;20.65;;
72201;SDS011;60105;54.956;73.412;2022-09-20T20:41:12;51.78;;;19.38;;
72201;SDS011;60105;54.956;73.412;2022-09-20T20:43:40;31.35;;;16.67;;
72201;SDS011;60105;54.956;73.412;2022-09-20T20:46:09;41.13;;;19.40;;
72201;SDS011;60105;54.956;73.412;2022-09-20T20:48:44;39.35;;;16.73;;
72201;SDS011;60105;54.956;73.412;2022-09-20T20:51:13;33.22;;;15.68;;
72201;SDS011;60105;54.956;73.412;2022-09-20T20:53:43;36.20;;;16.17;;
72201;SDS011;60105;54.956;73.412;2022-09-20T20:56:13;36.88;;;16.83;;
72201;SDS011;60105;54.956;73.412;2022-09-20T20:58:51;30.93;;;15.83;;
72201;SDS011;60105;54.956;73.412;2022-09-20T21:01:22;39.97;;;17.15;;
72201;SDS011;60105;54.956;73.412;2022-09-20T21:04:02;38.70;;;19.30;;
72201;SDS011;60105;54.956;73.412;2022-09-20T21:06:30;34.05;;;18.40;;
72201;SDS011;60105;54.956;73.412;2022-09-20T21:08:59;38.95;;;19.50;;
72201;SDS011;60105;54.956;73.412;2022-09-20T21:11:27;45.00;;;19.70;;